createdAt,value
2018-04-23T00:02:01.294Z,18.84
2018-04-23T00:04:29.435Z,18.89
2018-04-23T00:06:57.555Z,18.87
2018-04-23T00:09:25.700Z,18.92
2018-04-23T00:11:53.829Z,18.88
2018-04-23T00:14:22.029Z,18.88
2018-04-23T00:16:50.428Z,18.78
2018-04-23T00:19:18.572Z,18.72
2018-04-23T00:21:46.685Z,18.75
2018-04-23T00:24:14.847Z,18.79
2018-04-23T00:26:42.977Z,18.56
2018-04-23T00:29:11.108Z,18.65
2018-04-23T00:31:39.289Z,18.36
2018-04-23T00:34:07.431Z,18.41
2018-04-23T00:36:35.562Z,18.53
2018-04-23T00:39:03.720Z,18.52
2018-04-23T00:41:31.843Z,18.50
2018-04-23T00:44:00.001Z,18.50
2018-04-23T00:46:28.146Z,18.36
2018-04-23T00:48:56.277Z,18.30
2018-04-23T00:51:24.424Z,18.45
2018-04-23T00:53:52.582Z,18.48
2018-04-23T00:56:20.738Z,18.42
2018-04-23T00:58:48.865Z,18.49
2018-04-23T01:01:17.004Z,18.47
2018-04-23T01:03:45.149Z,18.45
2018-04-23T01:06:13.297Z,18.41
2018-04-23T01:08:41.434Z,18.34
2018-04-23T01:11:09.594Z,18.39
2018-04-23T01:13:41.052Z,18.29
2018-04-23T01:16:09.197Z,18.25
2018-04-23T01:18:37.339Z,18.27
2018-04-23T01:21:05.460Z,18.30
2018-04-23T01:23:33.635Z,18.23
2018-04-23T01:26:01.759Z,18.20
2018-04-23T01:28:29.894Z,18.15
2018-04-23T01:30:58.028Z,18.11
2018-04-23T01:33:26.197Z,18.17
2018-04-23T01:35:54.323Z,18.09
2018-04-23T01:38:22.462Z,18.03
2018-04-23T01:40:50.667Z,18.02
2018-04-23T01:43:18.785Z,18.04
2018-04-23T01:45:46.931Z,17.99
2018-04-23T01:48:15.066Z,17.90
2018-04-23T01:50:43.227Z,17.85
2018-04-23T01:53:11.370Z,17.91
2018-04-23T01:55:39.518Z,17.78
2018-04-23T01:58:07.670Z,17.81
2018-04-23T02:00:35.824Z,17.72
2018-04-23T02:03:03.936Z,17.67
2018-04-23T02:05:32.096Z,17.72
2018-04-23T02:08:00.625Z,17.76
2018-04-23T02:10:28.777Z,17.84
2018-04-23T02:12:57.297Z,17.76
2018-04-23T02:15:25.450Z,17.46
2018-04-23T02:17:53.576Z,17.59
2018-04-23T02:20:21.711Z,17.60
2018-04-23T02:22:49.884Z,17.61
2018-04-23T02:25:18.034Z,17.65
2018-04-23T02:27:46.152Z,17.69
2018-04-23T02:30:14.325Z,17.72
2018-04-23T02:32:42.477Z,17.78
2018-04-23T02:35:10.615Z,17.69
2018-04-23T02:37:38.762Z,17.68
2018-04-23T02:40:06.912Z,17.66
2018-04-23T02:42:35.043Z,17.73
2018-04-23T02:45:03.220Z,17.74
2018-04-23T02:47:31.349Z,17.78
2018-04-23T02:49:59.497Z,17.83
2018-04-23T02:52:27.642Z,17.60
2018-04-23T02:54:55.793Z,17.67
2018-04-23T02:57:23.950Z,17.72
2018-04-23T02:59:52.109Z,17.70
2018-04-23T03:02:20.257Z,17.82
2018-04-23T03:04:48.395Z,17.70
2018-04-23T03:07:16.551Z,17.65
2018-04-23T03:09:44.686Z,17.53
2018-04-23T03:12:12.838Z,17.68
2018-04-23T03:14:40.997Z,17.54
2018-04-23T03:17:09.130Z,17.72
2018-04-23T03:19:37.298Z,17.81
2018-04-23T03:22:05.448Z,17.79
2018-04-23T03:24:33.591Z,17.77
2018-04-23T03:27:01.839Z,17.65
2018-04-23T03:29:29.968Z,17.56
2018-04-23T03:31:58.116Z,17.62
2018-04-23T03:34:26.271Z,17.54
2018-04-23T03:36:54.402Z,17.48
2018-04-23T03:39:22.547Z,17.64
2018-04-23T03:41:50.678Z,17.73
2018-04-23T03:44:18.903Z,17.69
2018-04-23T03:46:47.061Z,17.43
2018-04-23T03:49:15.182Z,17.31
2018-04-23T03:51:43.342Z,17.22
2018-04-23T03:54:11.482Z,17.36
2018-04-23T03:56:39.632Z,17.36
2018-04-23T03:59:07.809Z,17.51
2018-04-23T04:01:35.939Z,17.45
2018-04-23T04:04:04.071Z,17.49
2018-04-23T04:06:32.220Z,17.58
2018-04-23T04:09:00.408Z,17.56
2018-04-23T04:11:28.544Z,17.53
2018-04-23T04:14:08.602Z,17.50
2018-04-23T04:16:48.560Z,17.46
2018-04-23T04:19:16.708Z,17.25
2018-04-23T04:21:44.838Z,17.29
2018-04-23T04:24:12.975Z,17.19
2018-04-23T04:26:41.115Z,17.24
2018-04-23T04:29:10.089Z,17.42
2018-04-23T04:31:38.212Z,17.45
2018-04-23T04:34:06.385Z,17.52
2018-04-23T04:36:34.518Z,17.38
2018-04-23T04:39:03.218Z,17.35
2018-04-23T04:41:31.378Z,17.21
2018-04-23T04:43:59.546Z,17.19
2018-04-23T04:46:27.732Z,17.14
2018-04-23T04:48:55.897Z,17.55
2018-04-23T04:51:24.053Z,17.30
2018-04-23T04:53:52.178Z,17.20
2018-04-23T04:56:20.326Z,17.09
2018-04-23T04:58:48.462Z,17.25
2018-04-23T05:01:16.602Z,17.29
2018-04-23T05:03:44.786Z,17.34
2018-04-23T05:06:12.917Z,17.20
2018-04-23T05:08:41.052Z,17.30
2018-04-23T05:11:09.255Z,17.32
2018-04-23T05:13:37.376Z,17.23
2018-04-23T05:16:05.512Z,17.08
2018-04-23T05:18:33.669Z,17.20
2018-04-23T05:21:01.842Z,17.30
2018-04-23T05:23:29.970Z,17.27
2018-04-23T05:25:58.124Z,17.29
2018-04-23T05:28:26.261Z,17.30
2018-04-23T05:30:54.378Z,17.31
2018-04-23T05:33:22.524Z,17.34
2018-04-23T05:35:50.667Z,17.46
2018-04-23T05:38:18.803Z,17.34
2018-04-23T05:40:47.122Z,17.10
2018-04-23T05:43:15.254Z,16.91
2018-04-23T05:45:43.373Z,16.87
2018-04-23T05:48:11.536Z,17.06
2018-04-23T05:50:39.694Z,16.99
2018-04-23T05:53:07.817Z,16.99
2018-04-23T05:55:35.951Z,17.10
2018-04-23T05:58:04.091Z,17.10
2018-04-23T06:00:32.244Z,16.89
2018-04-23T06:03:00.414Z,16.74
2018-04-23T06:05:28.541Z,16.83
2018-04-23T06:07:56.652Z,16.96
2018-04-23T06:10:24.825Z,16.87
2018-04-23T06:12:52.941Z,16.96
2018-04-23T06:15:21.082Z,16.91
2018-04-23T06:17:49.233Z,17.14
2018-04-23T06:20:17.373Z,16.76
2018-04-23T06:22:45.502Z,16.66
2018-04-23T06:25:13.652Z,16.93
2018-04-23T06:27:41.809Z,17.17
2018-04-23T06:30:09.927Z,17.24
2018-04-23T06:32:38.383Z,17.11
2018-04-23T06:35:06.518Z,17.10
2018-04-23T06:37:34.648Z,16.84
2018-04-23T06:40:02.821Z,16.91
2018-04-23T06:42:30.943Z,16.76
2018-04-23T06:44:59.100Z,16.82
2018-04-23T06:47:27.251Z,16.87
2018-04-23T06:49:55.375Z,16.76
2018-04-23T06:52:23.525Z,16.74
2018-04-23T06:54:51.690Z,16.55
2018-04-23T06:57:19.854Z,16.77
2018-04-23T06:59:47.983Z,16.66
2018-04-23T07:02:16.339Z,16.72
2018-04-23T07:04:44.491Z,16.86
2018-04-23T07:07:12.620Z,16.96
2018-04-23T07:09:40.771Z,17.02
2018-04-23T07:12:08.908Z,17.11
2018-04-23T07:14:37.028Z,16.53
2018-04-23T07:17:05.391Z,16.52
2018-04-23T07:19:33.546Z,16.31
2018-04-23T07:22:01.660Z,16.52
2018-04-23T07:24:29.810Z,16.65
2018-04-23T07:26:57.931Z,16.45
2018-04-23T07:29:26.074Z,16.63
2018-04-23T07:31:54.234Z,16.73
2018-04-23T07:34:22.388Z,16.87
2018-04-23T07:36:50.518Z,16.82
2018-04-23T07:39:18.670Z,16.60
2018-04-23T07:41:46.815Z,16.36
2018-04-23T07:44:14.937Z,16.37
2018-04-23T07:46:43.099Z,16.78
2018-04-23T07:49:11.228Z,16.92
2018-04-23T07:51:39.352Z,16.81
2018-04-23T07:54:07.490Z,17.05
2018-04-23T07:56:35.653Z,17.23
2018-04-23T07:59:03.808Z,17.18
2018-04-23T08:01:31.956Z,16.89
2018-04-23T08:04:00.101Z,16.86
2018-04-23T08:06:28.300Z,16.97
2018-04-23T08:08:56.390Z,16.89
2018-04-23T08:11:24.541Z,17.01
2018-04-23T08:13:52.644Z,17.18
2018-04-23T08:16:20.796Z,17.15
2018-04-23T08:18:48.927Z,17.16
2018-04-23T08:21:17.048Z,17.17
2018-04-23T08:23:45.195Z,17.04
2018-04-23T08:26:13.326Z,17.17
2018-04-23T08:28:41.466Z,17.10
2018-04-23T08:31:09.614Z,16.98
2018-04-23T08:33:37.764Z,17.15
2018-04-23T08:36:05.913Z,17.14
2018-04-23T08:38:34.113Z,17.33
2018-04-23T08:41:02.230Z,17.34
2018-04-23T08:43:30.350Z,17.40
2018-04-23T08:45:58.965Z,17.41
2018-04-23T08:48:27.099Z,17.53
2018-04-23T08:50:55.240Z,17.56
2018-04-23T08:53:23.396Z,17.74
2018-04-23T08:55:51.668Z,17.95
2018-04-23T08:58:19.684Z,17.83
2018-04-23T09:00:47.827Z,17.91
2018-04-23T09:03:15.941Z,17.79
2018-04-23T09:05:44.147Z,17.94
2018-04-23T09:08:12.281Z,18.04
2018-04-23T09:10:40.416Z,18.03
2018-04-23T09:13:08.557Z,17.96
2018-04-23T09:15:36.715Z,18.09
2018-04-23T09:18:04.834Z,18.27
2018-04-23T09:20:32.948Z,18.24
2018-04-23T09:23:01.141Z,18.28
2018-04-23T09:25:29.290Z,18.21
2018-04-23T09:27:57.572Z,18.26
2018-04-23T09:30:25.706Z,18.28
2018-04-23T09:32:53.830Z,18.47
2018-04-23T09:35:21.952Z,18.37
2018-04-23T09:37:50.112Z,18.19
2018-04-23T09:40:18.258Z,18.31
2018-04-23T09:42:46.368Z,18.37
2018-04-23T09:45:14.516Z,18.46
2018-04-23T09:47:45.791Z,18.53
2018-04-23T09:50:13.937Z,18.74
2018-04-23T09:52:42.084Z,18.89
2018-04-23T09:55:10.206Z,18.97
2018-04-23T09:57:38.358Z,18.74
2018-04-23T10:00:06.493Z,18.62
2018-04-23T10:02:34.656Z,18.68
2018-04-23T10:05:02.781Z,18.72
2018-04-23T10:07:34.173Z,18.69
2018-04-23T10:10:02.294Z,18.78
2018-04-23T10:12:30.437Z,19.03
2018-04-23T10:14:58.584Z,18.92
2018-04-23T10:17:26.731Z,18.83
2018-04-23T10:19:54.868Z,18.78
2018-04-23T10:22:23.013Z,18.91
2018-04-23T10:24:51.142Z,19.07
2018-04-23T10:27:22.245Z,19.25
2018-04-23T10:29:50.398Z,19.31
2018-04-23T10:32:18.537Z,19.39
2018-04-23T10:34:46.676Z,19.35
2018-04-23T10:37:14.800Z,19.53
2018-04-23T10:39:42.942Z,19.31
2018-04-23T10:42:11.088Z,19.28
2018-04-23T10:44:39.216Z,19.27
2018-04-23T10:47:07.332Z,19.11
2018-04-23T10:49:35.467Z,19.04
2018-04-23T10:52:03.649Z,19.14
2018-04-23T10:54:31.755Z,19.18
2018-04-23T10:56:59.867Z,19.34
2018-04-23T10:59:28.010Z,19.36
2018-04-23T11:01:56.176Z,18.93
2018-04-23T11:04:24.285Z,18.84
2018-04-23T11:06:52.430Z,19.00
2018-04-23T11:09:20.541Z,19.11
2018-04-23T11:11:48.671Z,19.11
2018-04-23T11:14:16.803Z,19.19
2018-04-23T11:16:48.373Z,19.31
2018-04-23T11:19:16.517Z,19.38
2018-04-23T11:21:44.653Z,19.38
2018-04-23T11:24:12.782Z,19.36
2018-04-23T11:26:40.997Z,19.36
2018-04-23T11:29:09.125Z,19.35
2018-04-23T11:31:37.323Z,19.51
2018-04-23T11:34:05.523Z,19.62
2018-04-23T11:36:33.677Z,19.63
2018-04-23T11:39:01.809Z,19.83
2018-04-23T11:41:30.005Z,19.91
2018-04-23T11:43:58.149Z,20.07
2018-04-23T11:46:26.291Z,20.06
2018-04-23T11:48:54.418Z,19.62
2018-04-23T11:51:22.554Z,19.53
2018-04-23T11:53:50.784Z,19.56
2018-04-23T11:56:18.946Z,20.09
2018-04-23T11:58:47.068Z,20.35
2018-04-23T12:01:15.216Z,20.48
2018-04-23T12:03:43.349Z,20.64
2018-04-23T12:06:11.494Z,20.68
2018-04-23T12:08:43.161Z,20.75
2018-04-23T12:11:11.281Z,20.78
2018-04-23T12:13:39.427Z,20.94
2018-04-23T12:16:07.594Z,20.95
2018-04-23T12:18:35.685Z,21.09
2018-04-23T12:21:03.826Z,20.87
2018-04-23T12:23:31.980Z,20.66
2018-04-23T12:26:00.106Z,20.65
2018-04-23T12:28:28.301Z,20.72
2018-04-23T12:30:56.443Z,20.24
2018-04-23T12:33:24.558Z,20.37
2018-04-23T12:35:52.720Z,20.67
2018-04-23T12:38:20.847Z,20.83
2018-04-23T12:40:49.009Z,20.54
2018-04-23T12:43:17.264Z,20.34
2018-04-23T12:45:45.399Z,20.67
2018-04-23T12:48:13.545Z,20.96
2018-04-23T12:50:41.667Z,20.82
2018-04-23T12:53:09.796Z,20.48
2018-04-23T12:55:38.074Z,20.38
2018-04-23T12:58:06.233Z,20.52
2018-04-23T13:00:34.345Z,20.91
2018-04-23T13:03:02.493Z,21.09
2018-04-23T13:05:30.696Z,21.15
2018-04-23T13:07:58.892Z,21.01
2018-04-23T13:10:27.031Z,20.98
2018-04-23T13:12:55.183Z,21.10
2018-04-23T13:15:23.801Z,21.30
2018-04-23T13:17:51.937Z,21.21
2018-04-23T13:20:20.077Z,21.15
2018-04-23T13:22:48.203Z,21.27
2018-04-23T13:25:16.343Z,21.25
2018-04-23T13:27:44.513Z,21.33
2018-04-23T13:30:12.648Z,21.16
2018-04-23T13:32:40.759Z,21.06
2018-04-23T13:35:08.923Z,21.28
2018-04-23T13:37:37.055Z,21.17
2018-04-23T13:40:05.190Z,21.31
2018-04-23T13:42:33.417Z,21.27
2018-04-23T13:45:01.492Z,20.85
2018-04-23T13:47:29.627Z,20.86
2018-04-23T13:49:57.768Z,20.87
2018-04-23T13:52:25.889Z,20.60
2018-04-23T13:54:54.040Z,20.64
2018-04-23T13:57:22.172Z,20.63
2018-04-23T13:59:50.312Z,20.53
2018-04-23T14:02:18.465Z,20.52
2018-04-23T14:04:46.584Z,20.67
2018-04-23T14:07:14.729Z,20.64
2018-04-23T14:09:42.879Z,20.70
2018-04-23T14:12:11.026Z,20.81
2018-04-23T14:14:39.176Z,20.93
2018-04-23T14:17:07.370Z,20.85
2018-04-23T14:19:35.547Z,20.89
2018-04-23T14:22:03.692Z,20.69
2018-04-23T14:24:31.828Z,20.56
2018-04-23T14:26:59.993Z,20.56
2018-04-23T14:29:28.126Z,20.59
2018-04-23T14:31:56.280Z,20.62
2018-04-23T14:34:24.449Z,20.35
2018-04-23T14:36:52.579Z,20.46
2018-04-23T14:39:20.731Z,20.53
2018-04-23T14:41:48.882Z,20.50
2018-04-23T14:44:17.176Z,20.60
2018-04-23T14:46:45.309Z,20.81
2018-04-23T14:49:13.446Z,20.55
2018-04-23T14:51:41.590Z,20.44
2018-04-23T14:54:09.713Z,20.13
2018-04-23T14:56:37.860Z,20.04
2018-04-23T14:59:06.000Z,19.91
2018-04-23T15:01:34.136Z,19.97
2018-04-23T15:04:02.281Z,19.77
2018-04-23T15:06:30.410Z,19.89
2018-04-23T15:08:58.568Z,19.84
2018-04-23T15:11:26.712Z,20.00
2018-04-23T15:13:54.860Z,20.06
2018-04-23T15:16:22.997Z,20.16
2018-04-23T15:18:51.151Z,20.18
2018-04-23T15:21:19.297Z,20.29
2018-04-23T15:23:47.451Z,20.31
2018-04-23T15:26:15.572Z,20.37
2018-04-23T15:28:43.713Z,20.35
2018-04-23T15:31:11.858Z,20.42
2018-04-23T15:33:40.119Z,20.33
2018-04-23T15:36:08.282Z,20.38
2018-04-23T15:38:36.418Z,20.33
2018-04-23T15:41:04.584Z,20.26
2018-04-23T15:43:32.735Z,20.12
2018-04-23T15:46:00.866Z,20.12
2018-04-23T15:48:29.038Z,20.07
2018-04-23T15:50:57.191Z,20.15
2018-04-23T15:53:25.319Z,20.07
2018-04-23T15:55:53.632Z,20.29
2018-04-23T15:58:21.788Z,20.32
2018-04-23T16:00:49.916Z,20.38
2018-04-23T16:03:18.080Z,20.13
2018-04-23T16:05:46.211Z,20.06
2018-04-23T16:08:14.348Z,20.15
2018-04-23T16:10:42.477Z,19.99
2018-04-23T16:13:10.655Z,20.03
2018-04-23T16:15:38.870Z,20.10
2018-04-23T16:18:07.078Z,19.93
2018-04-23T16:20:35.221Z,19.74
2018-04-23T16:23:03.371Z,19.76
2018-04-23T16:25:31.540Z,20.02
2018-04-23T16:27:59.647Z,20.05
2018-04-23T16:30:27.816Z,19.92
2018-04-23T16:32:56.264Z,19.84
2018-04-23T16:35:24.408Z,19.75
2018-04-23T16:37:52.577Z,19.69
2018-04-23T16:40:23.659Z,19.94
2018-04-23T16:42:51.817Z,19.86
2018-04-23T16:45:19.944Z,19.92
2018-04-23T16:47:48.110Z,19.95
2018-04-23T16:50:16.287Z,19.81
2018-04-23T16:52:44.437Z,19.75
2018-04-23T16:55:12.580Z,19.63
2018-04-23T16:57:40.724Z,19.57
2018-04-23T17:00:08.858Z,19.51
2018-04-23T17:02:37.034Z,19.51
2018-04-23T17:05:06.074Z,19.33
2018-04-23T17:07:34.236Z,19.28
2018-04-23T17:10:02.396Z,19.33
2018-04-23T17:12:30.532Z,19.41
2018-04-23T17:14:58.667Z,19.45
2018-04-23T17:17:26.814Z,19.50
2018-04-23T17:19:54.967Z,19.50
2018-04-23T17:22:23.141Z,19.30
2018-04-23T17:24:51.293Z,19.29
2018-04-23T17:27:19.626Z,19.13
2018-04-23T17:29:47.754Z,19.00
2018-04-23T17:32:15.906Z,18.91
2018-04-23T17:34:44.044Z,18.88
2018-04-23T17:37:12.187Z,18.99
2018-04-23T17:39:40.315Z,19.05
2018-04-23T17:42:08.441Z,18.89
2018-04-23T17:44:36.582Z,19.03
2018-04-23T17:47:04.742Z,18.97
2018-04-23T17:49:32.895Z,18.92
2018-04-23T17:52:01.177Z,18.93
2018-04-23T17:54:29.352Z,18.96
2018-04-23T17:56:57.495Z,19.04
2018-04-23T17:59:25.645Z,18.94
2018-04-23T18:01:53.785Z,18.94
2018-04-23T18:04:21.982Z,18.83
2018-04-23T18:06:50.090Z,18.88
2018-04-23T18:09:18.420Z,18.92
2018-04-23T18:11:46.577Z,18.83
2018-04-23T18:14:14.715Z,18.78
2018-04-23T18:16:42.860Z,18.74
2018-04-23T18:19:11.021Z,18.71
2018-04-23T18:21:39.133Z,18.66
2018-04-23T18:24:07.282Z,18.53
2018-04-23T18:26:35.419Z,18.41
2018-04-23T18:29:03.542Z,18.39
2018-04-23T18:31:31.694Z,18.41
2018-04-23T18:33:59.857Z,18.46
2018-04-23T18:36:27.972Z,18.38
2018-04-23T18:38:56.133Z,18.41
2018-04-23T18:41:24.253Z,18.38
2018-04-23T18:43:52.396Z,18.38
2018-04-23T18:46:20.722Z,18.38
2018-04-23T18:48:52.623Z,18.31
2018-04-23T18:51:20.797Z,18.28
2018-04-23T18:53:52.492Z,18.29
2018-04-23T18:56:20.619Z,18.17
2018-04-23T18:58:48.748Z,18.19
2018-04-23T19:01:16.944Z,18.25
2018-04-23T19:03:45.019Z,18.21
2018-04-23T19:06:16.453Z,18.15
2018-04-23T19:08:44.625Z,18.19
2018-04-23T19:11:16.050Z,18.21
2018-04-23T19:13:44.246Z,18.20
2018-04-23T19:16:12.400Z,18.14
2018-04-23T19:18:43.707Z,18.09
2018-04-23T19:21:11.892Z,18.12
2018-04-23T19:23:40.136Z,18.03
2018-04-23T19:26:08.269Z,18.06
2018-04-23T19:28:36.398Z,17.96
2018-04-23T19:31:04.543Z,17.93
2018-04-23T19:33:32.663Z,17.96
2018-04-23T19:36:00.906Z,17.93
2018-04-23T19:38:32.124Z,17.80
2018-04-23T19:41:03.192Z,17.79
2018-04-23T19:43:31.356Z,17.71
2018-04-23T19:45:59.595Z,17.54
2018-04-23T19:48:27.633Z,17.46
2018-04-23T19:50:55.748Z,17.27
2018-04-23T19:53:23.888Z,17.29
2018-04-23T19:55:52.015Z,17.21
2018-04-23T19:58:20.126Z,17.02
2018-04-23T20:00:48.270Z,16.75
2018-04-23T20:03:16.397Z,16.91
2018-04-23T20:05:44.513Z,16.92
2018-04-23T20:08:12.641Z,16.88
2018-04-23T20:10:40.781Z,16.81
2018-04-23T20:13:08.918Z,16.68
2018-04-23T20:15:40.598Z,16.49
2018-04-23T20:18:08.721Z,16.51
2018-04-23T20:20:40.761Z,16.56
2018-04-23T20:23:09.037Z,16.50
2018-04-23T20:25:37.081Z,16.41
2018-04-23T20:28:05.213Z,16.23
2018-04-23T20:30:33.383Z,16.34
2018-04-23T20:33:01.503Z,16.35
2018-04-23T20:35:29.630Z,16.05
2018-04-23T20:37:57.779Z,16.04
2018-04-23T20:40:26.131Z,16.01
2018-04-23T20:42:54.275Z,15.97
2018-04-23T20:45:22.428Z,15.68
2018-04-23T20:47:50.550Z,15.52
2018-04-23T20:50:18.670Z,15.72
2018-04-23T20:52:46.827Z,15.76
2018-04-23T20:55:14.965Z,15.25
2018-04-23T20:57:43.094Z,15.32
2018-04-23T21:00:11.230Z,15.51
2018-04-23T21:02:39.375Z,15.54
2018-04-23T21:05:07.580Z,15.56
2018-04-23T21:07:35.718Z,15.50
2018-04-23T21:10:03.850Z,15.30
2018-04-23T21:12:31.998Z,15.41
2018-04-23T21:15:00.132Z,15.42
2018-04-23T21:17:28.254Z,15.40
2018-04-23T21:19:56.409Z,15.35
2018-04-23T21:22:24.590Z,15.28
2018-04-23T21:24:52.766Z,15.26
2018-04-23T21:27:20.890Z,15.18
2018-04-23T21:29:49.067Z,15.00
2018-04-23T21:32:17.184Z,15.00
2018-04-23T21:34:45.300Z,14.84
2018-04-23T21:37:16.877Z,14.72
2018-04-23T21:39:45.003Z,14.89
2018-04-23T21:42:13.223Z,14.95
2018-04-23T21:44:41.362Z,14.67
2018-04-23T21:47:09.492Z,14.81
2018-04-23T21:49:37.622Z,14.89
2018-04-23T21:52:05.902Z,14.88
2018-04-23T21:54:34.032Z,14.55
2018-04-23T21:57:02.219Z,14.63
2018-04-23T21:59:30.354Z,14.74
2018-04-23T22:01:58.524Z,14.71
2018-04-23T22:04:26.633Z,14.72
2018-04-23T22:06:54.788Z,14.72
2018-04-23T22:09:22.963Z,14.73
2018-04-23T22:11:51.050Z,14.63
2018-04-23T22:14:19.190Z,14.75
2018-04-23T22:16:47.339Z,14.75
2018-04-23T22:19:15.481Z,14.67
2018-04-23T22:21:43.612Z,14.60
2018-04-23T22:24:11.725Z,14.53
2018-04-23T22:26:39.845Z,14.53
2018-04-23T22:29:07.988Z,14.47
2018-04-23T22:31:36.151Z,14.36
2018-04-23T22:34:04.274Z,14.34
2018-04-23T22:36:32.411Z,14.20
2018-04-23T22:39:00.540Z,13.92
2018-04-23T22:41:28.662Z,14.01
2018-04-23T22:43:56.832Z,14.12
2018-04-23T22:46:25.035Z,13.93
2018-04-23T22:48:53.165Z,13.73
2018-04-23T22:51:21.422Z,13.72
2018-04-23T22:53:53.109Z,13.83
2018-04-23T22:56:21.300Z,13.71
2018-04-23T22:58:49.429Z,13.82
2018-04-23T23:01:17.572Z,13.82
2018-04-23T23:03:45.684Z,13.66
2018-04-23T23:06:13.846Z,13.62
2018-04-23T23:08:41.971Z,13.74
2018-04-23T23:11:10.175Z,13.90
2018-04-23T23:13:38.244Z,14.09
2018-04-23T23:16:06.380Z,13.97
2018-04-23T23:18:34.518Z,14.02
2018-04-23T23:21:02.659Z,14.37
2018-04-23T23:23:30.796Z,14.44
2018-04-23T23:25:58.943Z,14.55
2018-04-23T23:28:27.079Z,14.68
2018-04-23T23:30:58.465Z,14.89
2018-04-23T23:33:26.665Z,14.95
2018-04-23T23:35:55.837Z,14.91
2018-04-23T23:38:24.062Z,14.84
2018-04-23T23:40:52.173Z,14.82
2018-04-23T23:43:20.561Z,14.57
2018-04-23T23:45:48.673Z,14.76
2018-04-23T23:48:16.808Z,14.74
2018-04-23T23:50:44.943Z,14.56
2018-04-23T23:53:13.048Z,14.27
2018-04-23T23:55:41.163Z,14.01
2018-04-23T23:58:09.331Z,14.26
